Palma De Mallorca, Spain

02:01 PM CET am 19. Januar 2017 (GMT +0100)
Palma De Mallorca | | Change Station

Höhe 26 ft 39.55 °N, 2.73 °E | Updated 16 minutes ago

Thunderstorm
Gewitter
50 °F
gefühlte 50 °F
N
5
Wind Wechselnd Wind aus Ost

Heute
Max. -- | schwach -- °F
--% Regenrisiko
Gestern
Max. -- | schwach -- °F
Precip. -- inch
Druck 30.04 inch
Sichtweite 5.0 Meilen
Wolken Few 1500 ft
Few 2500 ft
Teils Wolkig 3500 ft
Taupunkt 46 °F
Feuchtigkeit 87%
Regen 0.00 inch
Schneehöhe Nicht verfügbar..
8:06 AM 5:54 PM
Drittes Viertel, 54% visible
SPECI LEPA 191245Z 08004KT 050V140 8000 TS FEW015 FEW025CB SCT035 10/08 Q1017 NOSIG
Druck 30.04 inch
Sichtweite 5.0 Meilen
Wolken Few 1500 ft
Few 2500 ft
Teils Wolkig 3500 ft
Taupunkt 46 °F
Feuchtigkeit 87%
Regen 0.00 inch
Schneehöhe Nicht verfügbar..
8:06 AM 5:54 PM
Drittes Viertel, 54% visible
SPECI LEPA 191245Z 08004KT 050V140 8000 TS FEW015 FEW025CB SCT035 10/08 Q1017 NOSIG

Get Your Daily Forecast Email!

Thanks for signing up!

Be on the lookout for a verification email in your inbox.

You'll start receiving the daily forecast at 8 AM.

×

10-Day Weather Forecast

×

Almanac

Astronomie

Jan. 19, 2017 Aufgang Untergang
Genaue Zeit
Bürgerliche Dämmerung
Nautische Dämmerung
Astronomische Dämmerung
Mond
Länge des sichtbaren Lichts
Tageslänge
Tomorrow will be .
, % of the Moon is Illuminated

Heutige Rekorde

Country Highs Country Lows

Community

WunderPhotos

Upload Photos

1,962,540 Fotos hochgeladen!

WunderBlog® & News

Nearby

Luftqualität

  Luftqualität LQ Index Schadstoff
Not available.

Schneehöhe

Station Depth Höhe

Erdbebenaktivität

Stadt Distance Mag. Time & Date
Minimum magnitude displayed is 2.5.

küstennahe Wassertemperaturen

Ort Temperatur

Stations

Wetterstationen in der Umgebung

Stationsstandort Temp. Windchill Taupunkt Feuchtigkeit Wind Precip. Höhe Aktualisiert Art